Time;durP1;ratioP1;P1;durP2;ratioP2;P2;SDS_P1;SDS_P2;PMS_P1;PMS_P2;Temp;Humidity;BMP_temperature;BMP_pressure;BME280_temperature;BME280_humidity;BME280_pressure;Samples;Min_cycle;Max_cycle;Signal;HPM_P1;HPM_P2
2023/06/23 00:01:51;;;;;;;14.10;10.60;;;19.60;99.90;;;;;;4859997;29;20029;-82
2023/06/23 00:04:16;;;;;;;18.85;12.13;;;19.50;99.90;;;;;;4860230;29;20030;-82
2023/06/23 00:06:42;;;;;;;18.38;10.73;;;19.50;99.90;;;;;;4859186;29;20028;-82
2023/06/23 00:09:13;;;;;;;13.23;11.82;;;19.40;99.90;;;;;;4860209;29;20032;-82
2023/06/23 00:11:45;;;;;;;13.57;12.18;;;19.40;99.90;;;;;;4860629;29;20049;-82
2023/06/23 00:14:12;;;;;;;14.32;12.88;;;19.30;99.90;;;;;;4859367;29;20065;-82
2023/06/23 00:16:39;;;;;;;14.93;13.40;;;19.70;99.90;;;;;;4860159;29;20041;-82
2023/06/23 00:19:04;;;;;;;13.80;12.43;;;20.30;99.90;;;;;;4859763;29;20061;-82
2023/06/23 00:21:30;;;;;;;17.05;11.93;;;19.20;99.90;;;;;;4859605;29;20064;-82
2023/06/23 00:23:56;;;;;;;15.23;13.73;;;19.10;99.90;;;;;;4854205;29;20451;-82
2023/06/23 00:26:23;;;;;;;17.58;13.23;;;19.20;99.90;;;;;;4860129;29;20124;-82
2023/06/23 00:28:49;;;;;;;16.17;14.18;;;19.20;99.90;;;;;;4859159;29;20069;-82
2023/06/23 00:31:23;;;;;;;18.63;14.63;;;19.20;99.90;;;;;;4859883;29;20064;-82
2023/06/23 00:33:49;;;;;;;19.75;14.60;;;20.20;99.90;;;;;;4859678;29;20368;-82
2023/06/23 00:36:14;;;;;;;19.13;15.43;;;19.70;99.90;;;;;;4859508;29;20058;-82
2023/06/23 00:38:40;;;;;;;17.33;15.57;;;19.30;99.90;;;;;;4859985;29;20604;-82
2023/06/23 00:41:05;;;;;;;17.55;14.77;;;19.30;99.90;;;;;;4859514;29;20026;-82
2023/06/23 00:43:31;;;;;;;19.58;14.95;;;19.30;99.90;;;;;;4859236;29;20166;-82
2023/06/23 00:46:16;;;;;;;18.35;16.60;;;19.60;99.90;;;;;;4859468;29;20081;-82
2023/06/23 00:48:41;;;;;;;19.05;16.13;;;19.30;99.90;;;;;;4859126;29;20042;-82
2023/06/23 00:51:07;;;;;;;18.00;16.13;;;19.20;99.90;;;;;;4859705;29;20112;-83
2023/06/23 00:53:32;;;;;;;19.15;15.93;;;19.20;99.90;;;;;;4859819;29;20073;-82
2023/06/23 00:55:59;;;;;;;19.42;17.38;;;19.30;99.90;;;;;;4858941;29;20025;-82
2023/06/23 00:58:26;;;;;;;20.63;16.23;;;19.30;99.90;;;;;;4859956;29;20096;-82
2023/06/23 01:01:05;;;;;;;18.92;16.65;;;19.40;99.90;;;;;;4859629;29;20041;-82
2023/06/23 01:03:31;;;;;;;21.73;17.85;;;19.90;99.90;;;;;;4859187;29;20073;-82
2023/06/23 01:06:14;;;;;;;18.92;15.95;;;20.40;99.90;;;;;;4859691;29;20109;-82
2023/06/23 01:08:59;;;;;;;23.35;18.08;;;19.40;99.90;;;;;;4859711;29;20037;-82
2023/06/23 01:11:43;;;;;;;20.75;18.05;;;19.40;99.90;;;;;;4859023;29;20037;-82
2023/06/23 01:14:25;;;;;;;20.52;17.77;;;19.30;99.90;;;;;;4859499;29;20093;-82
2023/06/23 01:16:58;;;;;;;21.65;19.35;;;19.40;99.90;;;;;;4858590;29;20041;-82
2023/06/23 01:20:15;;;;;;;28.00;19.90;;;19.30;99.90;;;;;;4859831;29;20053;-82
2023/06/23 01:23:14;;;;;;;26.02;20.02;;;19.40;99.90;;;;;;4859574;29;20025;-82
2023/06/23 01:25:53;;;;;;;22.60;20.20;;;19.40;99.90;;;;;;4860371;29;20045;-82
2023/06/23 01:28:34;;;;;;;23.17;20.63;;;19.40;99.90;;;;;;4863059;29;20042;-82
2023/06/23 01:31:02;;;;;;;26.58;21.30;;;19.40;99.90;;;;;;4861955;29;20034;-82
2023/06/23 01:33:39;;;;;;;25.00;22.27;;;19.40;99.90;;;;;;4862777;29;20105;-82
2023/06/23 01:36:09;;;;;;;26.58;23.38;;;19.40;99.90;;;;;;4862548;29;20328;-82
2023/06/23 01:38:40;;;;;;;26.17;23.27;;;19.40;99.90;;;;;;4861863;29;20112;-82
2023/06/23 01:41:15;;;;;;;30.38;23.40;;;19.40;99.90;;;;;;4862453;29;20424;-83
2023/06/23 01:43:45;;;;;;;27.55;23.40;;;19.40;99.90;;;;;;4862486;29;20033;-82
2023/06/23 01:46:25;;;;;;;26.45;22.85;;;19.40;99.90;;;;;;4861807;29;20037;-82
2023/06/23 01:48:57;;;;;;;28.43;23.43;;;19.60;99.90;;;;;;4862531;29;20077;-82
2023/06/23 01:51:26;;;;;;;30.10;23.55;;;19.40;99.90;;;;;;4862542;29;20032;-82
2023/06/23 01:53:54;;;;;;;27.30;24.13;;;19.30;99.90;;;;;;4861760;29;20029;-82
2023/06/23 01:56:22;;;;;;;25.65;22.35;;;19.60;99.90;;;;;;4862275;29;20479;-82
2023/06/23 01:58:49;;;;;;;28.00;24.10;;;19.30;99.90;;;;;;4861943;29;20029;-82
2023/06/23 02:01:16;;;;;;;26.75;23.90;;;19.30;99.90;;;;;;4862540;29;20037;-82
2023/06/23 02:03:42;;;;;;;28.90;23.45;;;19.40;99.90;;;;;;4862270;29;20117;-83
2023/06/23 02:06:10;;;;;;;28.48;23.48;;;19.30;99.90;;;;;;4861271;29;20588;-83
2023/06/23 02:08:37;;;;;;;27.55;24.55;;;19.30;99.90;;;;;;4861976;29;20506;-83
2023/06/23 02:11:04;;;;;;;32.22;25.35;;;19.20;99.90;;;;;;4861944;29;20037;-83
2023/06/23 02:13:31;;;;;;;29.50;23.15;;;19.30;99.90;;;;;;4861424;29;20034;-83
2023/06/23 02:15:58;;;;;;;29.77;24.02;;;19.30;99.90;;;;;;4861839;29;20087;-83
2023/06/23 02:18:25;;;;;;;33.50;25.77;;;19.30;99.90;;;;;;4862120;29;20050;-83
2023/06/23 02:20:53;;;;;;;31.08;24.88;;;19.20;99.90;;;;;;4861038;29;20064;-83
2023/06/23 02:23:20;;;;;;;31.30;25.02;;;19.20;99.90;;;;;;4861557;29;20046;-83
2023/06/23 02:25:46;;;;;;;29.58;26.02;;;19.20;99.90;;;;;;4861701;29;20041;-83
2023/06/23 02:28:13;;;;;;;32.17;25.35;;;20.10;99.90;;;;;;4861122;29;20042;-83
2023/06/23 02:30:47;;;;;;;32.60;27.27;;;19.30;99.90;;;;;;4861639;29;20032;-82
2023/06/23 02:33:12;;;;;;;35.58;26.15;;;19.10;99.90;;;;;;4861865;29;20120;-82
2023/06/23 02:35:38;;;;;;;31.63;26.48;;;19.10;99.90;;;;;;4860850;29;20112;-83
2023/06/23 02:38:09;;;;;;;34.28;26.80;;;19.10;99.90;;;;;;4860555;29;20025;-83
2023/06/23 02:40:37;;;;;;;30.67;25.73;;;19.10;99.90;;;;;;4861881;29;20037;-83
2023/06/23 02:43:14;;;;;;;29.60;25.05;;;19.10;99.90;;;;;;4860555;29;20038;-83
2023/06/23 02:45:42;;;;;;;35.20;26.00;;;19.10;99.90;;;;;;4861665;29;20350;-82
2023/06/23 02:48:14;;;;;;;31.92;26.15;;;19.10;99.90;;;;;;4860484;29;20041;-83
2023/06/23 02:50:41;;;;;;;33.90;27.45;;;19.10;99.90;;;;;;4861478;29;20045;-83
2023/06/23 02:53:18;;;;;;;33.47;27.23;;;19.20;99.90;;;;;;4861146;29;20117;-83
2023/06/23 02:55:46;;;;;;;35.25;28.33;;;19.10;99.90;;;;;;4860971;29;20415;-82
2023/06/23 02:58:16;;;;;;;42.15;29.35;;;19.20;99.90;;;;;;4861365;29;20025;-82
2023/06/23 03:00:42;;;;;;;38.92;28.08;;;20.00;99.90;;;;;;4861287;29;20026;-82
2023/06/23 03:03:13;;;;;;;39.70;29.80;;;19.90;99.90;;;;;;4860330;29;20133;-82
2023/06/23 03:05:39;;;;;;;37.97;28.85;;;19.10;99.90;;;;;;4861774;29;20121;-83
2023/06/23 03:08:07;;;;;;;40.97;29.48;;;19.10;99.90;;;;;;4860997;29;20573;-83
2023/06/23 03:10:33;;;;;;;37.42;30.52;;;19.50;99.90;;;;;;4860822;29;20030;-83
2023/06/23 03:13:00;;;;;;;41.90;31.05;;;19.10;99.90;;;;;;4860814;29;20029;-83
2023/06/23 03:15:26;;;;;;;37.08;29.83;;;19.10;99.90;;;;;;4861073;29;20030;-82
2023/06/23 03:17:58;;;;;;;38.35;29.58;;;19.80;99.90;;;;;;4860085;29;20057;-83
2023/06/23 03:20:46;;;;;;;37.22;28.70;;;19.80;99.90;;;;;;4861271;29;20386;-82
2023/06/23 03:23:14;;;;;;;38.22;29.30;;;19.10;99.90;;;;;;4860295;29;20037;-83
2023/06/23 03:25:41;;;;;;;38.22;29.67;;;19.00;99.90;;;;;;4861235;29;20075;-83
2023/06/23 03:28:09;;;;;;;38.67;28.73;;;19.00;99.90;;;;;;4861006;29;20041;-83
2023/06/23 03:30:41;;;;;;;40.33;29.40;;;19.80;99.90;;;;;;4860495;29;20037;-83
2023/06/23 03:33:27;;;;;;;41.33;28.88;;;19.00;99.90;;;;;;4860649;29;20056;-83
2023/06/23 03:35:57;;;;;;;40.00;30.35;;;19.00;99.90;;;;;;4860293;29;20116;-83
2023/06/23 03:38:25;;;;;;;33.97;28.48;;;19.00;99.90;;;;;;4860066;29;20121;-83
2023/06/23 03:40:59;;;;;;;35.35;28.25;;;19.00;99.90;;;;;;4860523;29;20038;-83
2023/06/23 03:43:32;;;;;;;36.40;28.60;;;19.00;99.90;;;;;;4860202;29;20029;-81
2023/06/23 03:46:02;;;;;;;34.80;27.83;;;19.10;99.90;;;;;;4859775;29;20495;-84
2023/06/23 03:48:32;;;;;;;35.72;29.33;;;19.00;99.90;;;;;;4860441;29;20037;-84
2023/06/23 03:51:00;;;;;;;36.53;30.13;;;18.90;99.90;;;;;;4859900;29;20030;-84
2023/06/23 03:53:28;;;;;;;38.35;29.60;;;19.30;99.90;;;;;;4859983;29;20630;-83
2023/06/23 03:55:56;;;;;;;35.15;28.80;;;19.00;99.90;;;;;;4860415;29;20064;-83
2023/06/23 03:58:24;;;;;;;42.63;32.45;;;19.00;99.90;;;;;;4859961;29;20398;-82
2023/06/23 04:00:52;;;;;;;37.08;30.40;;;19.30;99.90;;;;;;4860154;29;20134;-82
2023/06/23 04:03:21;;;;;;;40.53;32.38;;;19.00;99.90;;;;;;4860250;29;20036;-83
2023/06/23 04:05:48;;;;;;;34.85;29.63;;;19.50;99.90;;;;;;4859684;29;20135;-82
2023/06/23 04:08:15;;;;;;;36.88;31.00;;;19.00;99.90;;;;;;4859979;29;20045;-83
2023/06/23 04:10:43;;;;;;;39.70;30.42;;;19.00;99.90;;;;;;4860460;29;20036;-83
2023/06/23 04:13:11;;;;;;;36.72;29.83;;;19.00;99.90;;;;;;4859410;29;20033;-82
2023/06/23 04:15:38;;;;;;;41.00;30.88;;;19.10;99.90;;;;;;4860083;29;20383;-83
2023/06/23 04:18:06;;;;;;;39.13;29.90;;;19.00;99.90;;;;;;4859678;29;20034;-83
2023/06/23 04:20:33;;;;;;;42.67;31.48;;;19.90;99.90;;;;;;4859628;29;20383;-83
2023/06/23 04:23:00;;;;;;;41.15;31.40;;;18.90;99.90;;;;;;4859778;29;20038;-83
2023/06/23 04:25:26;;;;;;;43.88;31.50;;;19.00;99.90;;;;;;4859900;29;20116;-82
2023/06/23 04:27:56;;;;;;;35.05;29.70;;;19.00;99.90;;;;;;4859037;29;20044;-83
2023/06/23 04:30:24;;;;;;;44.22;30.90;;;18.90;99.90;;;;;;4860065;29;20085;-83
2023/06/23 04:32:49;;;;;;;34.90;30.15;;;19.30;99.90;;;;;;4859797;29;20112;-82
2023/06/23 04:35:15;;;;;;;40.58;31.63;;;19.00;99.90;;;;;;4859081;29;20117;-83
2023/06/23 04:37:56;;;;;;;39.10;30.75;;;19.20;99.90;;;;;;4859587;29;20068;-83
2023/06/23 04:40:53;;;;;;;42.22;31.83;;;18.70;99.90;;;;;;4859939;29;20029;-83
2023/06/23 04:43:26;;;;;;;41.67;31.27;;;18.80;99.90;;;;;;4859893;29;20364;-83
2023/06/23 04:45:58;;;;;;;38.47;29.73;;;18.80;99.90;;;;;;4859810;29;20109;-83
2023/06/23 04:48:29;;;;;;;43.10;30.45;;;18.90;99.90;;;;;;4859371;29;20394;-83
2023/06/23 04:50:58;;;;;;;41.97;29.60;;;18.90;99.90;;;;;;4859688;29;20030;-82
2023/06/23 04:53:30;;;;;;;40.05;29.20;;;19.00;99.90;;;;;;4859718;29;20037;-82
2023/06/23 04:56:01;;;;;;;41.03;29.95;;;19.10;99.90;;;;;;4859107;29;20030;-82
2023/06/23 04:58:31;;;;;;;42.50;29.63;;;19.10;99.90;;;;;;4860142;29;20025;-82
2023/06/23 05:00:59;;;;;;;39.40;30.23;;;19.50;99.90;;;;;;4862489;29;20052;-82
2023/06/23 05:03:27;;;;;;;39.92;29.48;;;19.10;99.90;;;;;;4862320;29;20120;-82
2023/06/23 05:05:55;;;;;;;40.13;29.52;;;19.10;99.90;;;;;;4863035;29;20025;-82
2023/06/23 05:08:25;;;;;;;37.65;29.67;;;19.20;99.90;;;;;;4863158;29;20105;-82
2023/06/23 05:10:52;;;;;;;40.78;31.08;;;19.10;99.90;;;;;;4862520;29;20598;-83
2023/06/23 05:13:19;;;;;;;39.72;28.85;;;19.10;99.90;;;;;;4863198;29;20037;-82
2023/06/23 05:15:47;;;;;;;42.08;29.92;;;19.10;99.90;;;;;;4862320;29;20030;-83
2023/06/23 05:18:14;;;;;;;36.08;28.88;;;19.20;99.90;;;;;;4863132;29;20037;-82
2023/06/23 05:20:41;;;;;;;41.25;31.05;;;19.10;99.90;;;;;;4862825;29;20029;-82
2023/06/23 05:23:08;;;;;;;46.90;30.15;;;20.00;99.90;;;;;;4862185;29;20930;-83
2023/06/23 05:25:36;;;;;;;44.22;29.95;;;19.10;99.90;;;;;;4862915;29;20037;-82
2023/06/23 05:28:05;;;;;;;40.72;30.20;;;20.10;99.90;;;;;;4862599;29;20045;-83
2023/06/23 05:30:34;;;;;;;38.47;29.63;;;19.90;99.90;;;;;;4862265;29;20033;-83
2023/06/23 05:33:01;;;;;;;41.65;31.33;;;19.20;99.90;;;;;;4862355;29;20032;-83
2023/06/23 05:35:28;;;;;;;49.35;32.47;;;19.90;99.90;;;;;;4862909;29;20052;-83
2023/06/23 05:37:55;;;;;;;35.15;29.35;;;19.30;99.90;;;;;;4861698;29;20033;-83
2023/06/23 05:40:21;;;;;;;38.35;29.08;;;19.20;99.90;;;;;;4862481;29;20506;-83
2023/06/23 05:42:46;;;;;;;44.53;30.30;;;19.20;99.90;;;;;;4862653;29;20034;-83
2023/06/23 05:45:12;;;;;;;40.90;31.58;;;19.40;99.90;;;;;;4861872;29;20129;-83
2023/06/23 05:47:47;;;;;;;41.92;30.25;;;20.00;99.90;;;;;;4862234;29;20481;-83
2023/06/23 05:50:29;;;;;;;40.30;29.65;;;19.30;99.90;;;;;;4862511;29;20486;-82
2023/06/23 05:53:02;;;;;;;44.65;30.15;;;19.40;99.90;;;;;;4861656;29;20057;-82
2023/06/23 05:55:30;;;;;;;45.30;31.75;;;19.40;99.90;;;;;;4862477;29;20049;-82
2023/06/23 05:58:00;;;;;;;40.80;29.35;;;19.40;99.90;;;;;;4861726;29;20045;-82
2023/06/23 06:00:31;;;;;;;;;;;19.40;99.90;;;;;;4862663;29;20025;-82
2023/06/23 06:03:02;;;;;;;41.15;29.63;;;19.30;99.90;;;;;;4862097;29;19912;-83
2023/06/23 06:05:28;;;;;;;35.97;28.40;;;19.30;99.90;;;;;;4861611;29;20037;-82
2023/06/23 06:07:57;;;;;;;36.03;27.27;;;19.40;99.90;;;;;;4861919;29;20041;-84
2023/06/23 06:10:24;;;;;;;36.38;26.95;;;19.60;99.90;;;;;;4862097;29;20030;-84
2023/06/23 06:12:51;;;;;;;35.28;27.25;;;19.30;99.90;;;;;;4861053;29;20497;-84
2023/06/23 06:15:17;;;;;;;38.03;26.25;;;19.40;99.90;;;;;;4862239;29;20169;-84
2023/06/23 06:17:44;;;;;;;36.38;27.33;;;19.50;99.90;;;;;;4862093;29;20038;-84
2023/06/23 06:20:13;;;;;;;35.47;27.40;;;19.40;99.90;;;;;;4861052;29;20026;-84
2023/06/23 06:22:41;;;;;;;39.58;27.15;;;19.40;99.90;;;;;;4862025;29;20052;-84
2023/06/23 06:25:09;;;;;;;39.38;28.50;;;19.40;99.90;;;;;;4861381;29;20053;-83
2023/06/23 06:27:35;;;;;;;34.75;26.60;;;19.50;99.90;;;;;;4860988;29;20045;-83
2023/06/23 06:30:03;;;;;;;42.47;29.00;;;19.50;99.90;;;;;;4861755;29;20030;-83
2023/06/23 06:32:31;;;;;;;35.58;26.98;;;20.30;99.90;;;;;;4861825;29;20040;-83
2023/06/23 06:35:04;;;;;;;32.00;25.55;;;19.50;99.90;;;;;;4860863;29;20387;-84
2023/06/23 06:37:33;;;;;;;32.58;25.00;;;19.40;99.90;;;;;;4861660;29;20036;-84
2023/06/23 06:40:01;;;;;;;36.35;25.05;;;19.50;99.90;;;;;;4861267;29;20022;-84
2023/06/23 06:42:27;;;;;;;35.70;24.95;;;19.50;99.90;;;;;;4861142;29;20029;-83
2023/06/23 06:44:53;;;;;;;31.48;24.45;;;20.00;99.90;;;;;;4861164;29;20112;-83
2023/06/23 06:47:20;;;;;;;30.13;23.40;;;20.00;99.90;;;;;;4860816;29;20098;-84
2023/06/23 06:49:49;;;;;;;33.40;22.60;;;20.40;99.90;;;;;;4861099;29;20029;-84
2023/06/23 06:52:17;;;;;;;33.17;22.27;;;19.60;99.90;;;;;;4861335;29;20037;-83
2023/06/23 06:54:44;;;;;;;25.95;21.42;;;19.60;99.90;;;;;;4861007;29;20027;-83
2023/06/23 06:57:10;;;;;;;28.48;21.70;;;19.60;99.90;;;;;;4861541;29;20034;-84
2023/06/23 06:59:46;;;;;;;24.55;18.20;;;19.70;99.90;;;;;;4861363;29;20029;-84
2023/06/23 07:02:12;;;;;;;27.33;21.15;;;19.60;99.90;;;;;;4860554;29;20029;-84
2023/06/23 07:04:39;;;;;;;27.70;22.42;;;19.80;99.90;;;;;;4860965;29;20085;-84
2023/06/23 07:07:05;;;;;;;30.65;22.95;;;20.40;99.90;;;;;;4860666;29;20034;-84
2023/06/23 07:09:31;;;;;;;31.92;22.02;;;19.70;99.90;;;;;;4860331;29;20041;-84
2023/06/23 07:11:58;;;;;;;16.98;14.30;;;19.80;99.90;;;;;;4860632;29;20065;-84
2023/06/23 07:14:23;;;;;;;17.83;14.60;;;19.80;99.90;;;;;;4860980;29;20038;-84
2023/06/23 07:16:49;;;;;;;17.08;12.52;;;19.80;99.90;;;;;;4859857;29;20031;-83
2023/06/23 07:19:14;;;;;;;13.93;10.43;;;19.80;99.90;;;;;;4860595;29;20034;-84
2023/06/23 07:21:40;;;;;;;12.77;10.80;;;19.80;99.90;;;;;;4860871;29;20495;-84
2023/06/23 07:24:06;;;;;;;11.52;10.50;;;19.80;99.90;;;;;;4858786;29;20056;-84
2023/06/23 07:26:33;;;;;;;11.07;9.98;;;19.90;99.90;;;;;;4860520;29;20487;-83
2023/06/23 07:28:58;;;;;;;11.68;10.50;;;20.10;99.90;;;;;;4860515;29;20053;-84
2023/06/23 07:31:25;;;;;;;10.88;9.82;;;19.90;99.90;;;;;;4859830;29;20054;-84
2023/06/23 07:33:51;;;;;;;13.93;10.50;;;19.90;99.90;;;;;;4860287;29;20037;-84
2023/06/23 07:36:17;;;;;;;11.60;10.40;;;20.00;99.90;;;;;;4860494;29;20496;-83
2023/06/23 07:38:43;;;;;;;10.52;9.55;;;20.00;99.90;;;;;;4860101;29;20029;-83
2023/06/23 07:41:08;;;;;;;10.80;9.80;;;20.00;99.90;;;;;;4860242;29;20513;-84
2023/06/23 07:43:34;;;;;;;11.70;10.45;;;20.00;99.90;;;;;;4859879;29;20029;-83
2023/06/23 07:45:59;;;;;;;13.30;10.27;;;20.00;99.90;;;;;;4860250;29;20526;-84
2023/06/23 07:48:25;;;;;;;11.85;10.68;;;20.20;99.90;;;;;;4860178;29;20045;-84
2023/06/23 07:50:50;;;;;;;11.02;9.48;;;20.00;99.90;;;;;;4859691;29;20112;-84
2023/06/23 07:53:16;;;;;;;11.43;10.40;;;20.10;99.90;;;;;;4860147;29;20382;-83
2023/06/23 07:55:42;;;;;;;12.07;10.88;;;20.30;99.90;;;;;;4860343;29;20025;-83
2023/06/23 07:58:07;;;;;;;10.15;9.18;;;20.20;99.90;;;;;;4859360;29;20078;-84
2023/06/23 08:00:33;;;;;;;12.80;10.02;;;20.20;99.90;;;;;;4860149;29;20037;-83
2023/06/23 08:02:58;;;;;;;10.35;9.35;;;20.70;99.90;;;;;;4860025;29;20522;-83
2023/06/23 08:05:24;;;;;;;10.40;9.50;;;20.20;99.90;;;;;;4860187;29;20105;-84
2023/06/23 08:07:50;;;;;;;10.93;9.30;;;20.20;99.90;;;;;;4859722;29;20363;-84
2023/06/23 08:10:16;;;;;;;9.23;8.32;;;20.50;99.90;;;;;;4860167;29;20077;-84
2023/06/23 08:12:41;;;;;;;9.93;8.93;;;20.30;99.90;;;;;;4859473;29;20033;-83
2023/06/23 08:15:07;;;;;;;14.95;9.73;;;20.30;99.90;;;;;;4859779;29;20032;-84
2023/06/23 08:17:34;;;;;;;10.75;9.55;;;20.40;99.90;;;;;;4859933;29;20033;-84
2023/06/23 08:20:00;;;;;;;10.25;8.95;;;20.40;99.90;;;;;;4858455;29;20034;-83
2023/06/23 08:22:25;;;;;;;10.85;8.52;;;20.40;99.90;;;;;;4859754;29;20033;-84
2023/06/23 08:24:51;;;;;;;12.18;9.40;;;20.40;99.90;;;;;;4859607;29;20510;-83
2023/06/23 08:27:17;;;;;;;11.52;10.27;;;21.10;99.90;;;;;;4859345;29;20069;-83
2023/06/23 08:29:42;;;;;;;11.68;10.48;;;20.50;99.90;;;;;;4859952;29;20471;-83
2023/06/23 08:32:08;;;;;;;11.50;8.32;;;20.50;99.90;;;;;;4859666;29;20022;-83
2023/06/23 08:34:36;;;;;;;13.43;9.48;;;20.50;99.90;;;;;;4859744;29;20390;-84
2023/06/23 08:37:02;;;;;;;10.32;9.52;;;20.50;99.90;;;;;;4863366;29;20479;-84
2023/06/23 08:39:27;;;;;;;15.75;10.25;;;20.60;99.90;;;;;;4863745;29;20038;-83
2023/06/23 08:41:54;;;;;;;11.20;10.10;;;20.60;99.90;;;;;;4862632;29;20022;-83
2023/06/23 08:44:24;;;;;;;12.75;9.98;;;20.60;99.90;;;;;;4863686;29;20162;-83
2023/06/23 08:46:57;;;;;;;12.90;9.55;;;20.60;99.90;;;;;;4862812;29;20123;-83
2023/06/23 08:49:24;;;;;;;11.60;10.20;;;20.60;99.90;;;;;;4863768;29;20038;-83
2023/06/23 08:51:50;;;;;;;10.27;9.27;;;20.60;99.90;;;;;;4863147;29;20039;-83
2023/06/23 08:54:16;;;;;;;13.98;10.65;;;21.40;99.90;;;;;;4863088;29;20032;-83
2023/06/23 08:56:45;;;;;;;10.27;9.27;;;20.80;99.90;;;;;;4863480;29;20022;-83
2023/06/23 08:59:12;;;;;;;10.05;8.18;;;20.70;99.90;;;;;;4863341;29;20490;-83
2023/06/23 09:01:37;;;;;;;9.90;8.93;;;20.70;99.90;;;;;;4862485;29;20478;-83
2023/06/23 09:04:03;;;;;;;10.68;8.13;;;20.70;99.90;;;;;;4863154;29;20040;-83
2023/06/23 09:06:29;;;;;;;10.57;8.60;;;20.80;99.90;;;;;;4863385;29;20038;-83
2023/06/23 09:08:56;;;;;;;10.82;9.82;;;20.80;99.90;;;;;;4862190;29;20440;-83
2023/06/23 09:11:22;;;;;;;14.75;10.10;;;20.90;99.90;;;;;;4863470;29;20041;-83
2023/06/23 09:13:52;;;;;;;11.82;10.63;;;21.80;99.90;;;;;;4862886;29;20089;-83
2023/06/23 09:16:18;;;;;;;9.98;9.00;;;20.90;99.90;;;;;;4862668;29;20029;-83
2023/06/23 09:18:47;;;;;;;8.88;8.18;;;21.00;99.90;;;;;;4862745;29;20494;-83
2023/06/23 09:21:12;;;;;;;10.40;6.72;;;21.00;99.90;;;;;;4863093;29;20065;-83
2023/06/23 09:23:38;;;;;;;9.55;8.60;;;21.00;99.90;;;;;;4862303;29;20069;-83
2023/06/23 09:26:06;;;;;;;6.90;6.20;;;21.00;99.90;;;;;;4862757;29;20021;-84
2023/06/23 09:28:36;;;;;;;5.07;4.65;;;21.00;99.90;;;;;;4862725;29;20051;-83
2023/06/23 09:31:15;;;;;;;5.80;5.30;;;21.10;99.90;;;;;;4862153;29;20434;-83
2023/06/23 09:33:51;;;;;;;6.65;4.28;;;21.10;99.90;;;;;;4862964;29;20124;-83
2023/06/23 09:36:17;;;;;;;7.72;5.43;;;21.10;99.90;;;;;;4862005;29;20557;-83
2023/06/23 09:38:43;;;;;;;7.40;5.68;;;21.00;99.90;;;;;;4862662;29;20478;-83
2023/06/23 09:41:10;;;;;;;5.10;4.70;;;21.10;99.90;;;;;;4862485;29;20082;-83
2023/06/23 09:43:43;;;;;;;8.55;4.57;;;21.10;99.90;;;;;;4861841;29;20066;-83
2023/06/23 09:46:11;;;;;;;7.20;4.63;;;21.10;99.90;;;;;;4861870;29;20120;-83
2023/06/23 09:48:37;;;;;;;6.22;4.80;;;21.20;99.90;;;;;;4862614;29;20089;-83
2023/06/23 09:51:05;;;;;;;7.00;4.22;;;21.20;99.90;;;;;;4861632;29;20033;-83
2023/06/23 09:53:37;;;;;;;6.50;5.57;;;21.20;99.90;;;;;;4862308;29;20108;-83
2023/06/23 09:56:04;;;;;;;5.00;4.47;;;21.20;99.90;;;;;;4862575;29;20057;-83
2023/06/23 09:58:32;;;;;;;7.35;5.13;;;21.30;99.90;;;;;;4861776;29;20026;-83
2023/06/23 10:01:07;;;;;;;4.47;4.10;;;21.30;99.90;;;;;;4862008;29;20108;-83
2023/06/23 10:03:42;;;;;;;6.88;4.75;;;21.30;99.90;;;;;;4862097;29;20490;-83
2023/06/23 10:06:08;;;;;;;6.93;5.15;;;21.30;99.90;;;;;;4860971;29;20116;-83
2023/06/23 10:08:39;;;;;;;5.75;4.68;;;21.60;99.90;;;;;;4861957;29;20128;-83
2023/06/23 10:11:07;;;;;;;4.78;4.13;;;21.40;99.90;;;;;;4862050;29;20029;-83
2023/06/23 10:13:33;;;;;;;4.53;4.20;;;21.40;99.90;;;;;;4861640;29;20030;-83
2023/06/23 10:16:01;;;;;;;4.32;3.92;;;21.40;99.90;;;;;;4861750;29;20053;-83
2023/06/23 10:18:27;;;;;;;3.70;3.30;;;21.40;99.90;;;;;;4861194;29;20034;-83
2023/06/23 10:20:53;;;;;;;5.07;4.15;;;21.50;99.90;;;;;;4861668;29;20036;-83
2023/06/23 10:23:22;;;;;;;4.60;4.10;;;21.50;99.90;;;;;;4861782;29;20046;-83
2023/06/23 10:25:54;;;;;;;3.92;3.53;;;21.50;99.90;;;;;;4860823;29;20495;-83
2023/06/23 10:28:22;;;;;;;3.17;2.40;;;21.70;99.90;;;;;;4861601;29;20088;-83
2023/06/23 10:30:48;;;;;;;4.03;3.38;;;21.60;99.90;;;;;;4861497;29;20030;-83
2023/06/23 10:33:19;;;;;;;4.57;3.28;;;22.10;99.90;;;;;;4860860;29;20030;-83
2023/06/23 10:35:48;;;;;;;4.55;2.88;;;21.70;99.90;;;;;;4861604;29;20033;-83
2023/06/23 10:38:25;;;;;;;3.28;3.00;;;21.70;99.90;;;;;;4861551;29;20534;-83
2023/06/23 10:40:54;;;;;;;2.63;2.42;;;21.80;99.90;;;;;;4860787;29;20029;-83
2023/06/23 10:43:21;;;;;;;4.93;2.83;;;21.80;99.90;;;;;;4861483;29;20033;-83
2023/06/23 10:45:50;;;;;;;5.22;2.95;;;21.90;99.90;;;;;;4861148;29;20033;-83
2023/06/23 10:48:18;;;;;;;3.30;2.70;;;21.90;99.90;;;;;;4861028;29;20049;-83
2023/06/23 10:50:46;;;;;;;3.42;2.97;;;21.90;99.90;;;;;;4861531;29;20029;-83
2023/06/23 10:53:17;;;;;;;4.90;3.25;;;22.20;99.90;;;;;;4861349;29;20113;-83
2023/06/23 10:55:56;;;;;;;2.97;2.78;;;21.90;99.90;;;;;;4860690;29;20106;-83
2023/06/23 10:58:21;;;;;;;4.53;3.38;;;21.90;99.90;;;;;;4860431;29;20377;-83
2023/06/23 11:01:07;;;;;;;8.73;2.83;;;21.90;99.90;;;;;;4860430;29;20089;-83
2023/06/23 11:03:35;;;;;;;2.97;2.78;;;21.90;99.90;;;;;;4860538;29;20034;-83
2023/06/23 11:06:09;;;;;;;7.25;3.15;;;22.00;99.90;;;;;;4860856;29;20456;-83
2023/06/23 11:08:39;;;;;;;5.43;2.97;;;22.00;99.90;;;;;;4860236;29;20097;-83
2023/06/23 11:11:07;;;;;;;3.90;3.03;;;22.10;99.90;;;;;;4861168;29;20030;-83
2023/06/23 11:13:42;;;;;;;3.58;3.08;;;22.10;99.90;;;;;;4861207;29;20030;-83
2023/06/23 11:16:16;;;;;;;3.92;3.47;;;22.10;99.90;;;;;;4860203;29;20034;-83
2023/06/23 11:18:49;;;;;;;5.63;2.97;;;22.10;99.90;;;;;;4860892;29;20033;-83
2023/06/23 11:21:37;;;;;;;4.03;3.63;;;22.10;99.90;;;;;;4860740;29;20042;-83
2023/06/23 11:24:14;;;;;;;3.97;3.30;;;22.20;99.90;;;;;;4860250;29;20495;-83
2023/06/23 11:26:44;;;;;;;5.63;3.17;;;22.20;99.90;;;;;;4860968;29;20420;-84
2023/06/23 11:29:12;;;;;;;3.53;2.88;;;22.20;99.80;;;;;;4859858;29;20082;-84
2023/06/23 11:32:07;;;;;;;5.30;3.00;;;22.20;99.90;;;;;;4860791;29;20036;-83
2023/06/23 11:34:54;;;;;;;3.58;3.28;;;22.20;99.80;;;;;;4860809;29;20040;-83
2023/06/23 11:37:21;;;;;;;3.58;3.22;;;22.20;99.80;;;;;;4859879;29;20103;-84
2023/06/23 11:39:47;;;;;;;3.60;3.17;;;22.20;99.10;;;;;;4860171;29;20092;-83
2023/06/23 11:42:13;;;;;;;6.72;5.25;;;22.30;99.20;;;;;;4860363;29;20470;-84
2023/06/23 11:44:39;;;;;;;5.35;3.30;;;22.30;99.20;;;;;;4859661;29;20037;-84
2023/06/23 11:47:05;;;;;;;4.30;3.55;;;22.30;99.50;;;;;;4860209;29;20174;-84
2023/06/23 11:49:31;;;;;;;4.57;2.90;;;22.30;99.40;;;;;;4860099;29;20037;-84
2023/06/23 11:52:02;;;;;;;4.72;2.85;;;22.30;99.30;;;;;;4859345;29;20041;-83
2023/06/23 11:54:35;;;;;;;4.13;3.08;;;22.30;99.50;;;;;;4860024;29;20045;-83
2023/06/23 11:57:02;;;;;;;5.03;3.05;;;22.30;98.50;;;;;;4859434;29;20030;-84
2023/06/23 11:59:34;;;;;;;3.85;3.03;;;22.30;99.20;;;;;;4860362;29;20104;-84
2023/06/23 12:02:00;;;;;;;8.75;3.35;;;22.40;99.10;;;;;;4859935;29;20526;-83
2023/06/23 12:04:25;;;;;;;4.10;3.70;;;22.50;99.60;;;;;;4859529;29;20036;-83
2023/06/23 12:06:52;;;;;;;5.07;3.20;;;22.70;98.70;;;;;;4859772;29;20037;-83
2023/06/23 12:09:20;;;;;;;3.20;2.90;;;22.80;98.50;;;;;;4859439;29;20505;-83
2023/06/23 12:11:47;;;;;;;3.22;2.88;;;22.80;98.10;;;;;;4859239;29;20041;-83
2023/06/23 12:14:12;;;;;;;3.45;3.17;;;22.70;98.10;;;;;;4860085;29;20033;-83
2023/06/23 12:16:38;;;;;;;3.75;2.70;;;22.70;98.40;;;;;;4860128;29;20029;-83
2023/06/23 12:19:04;;;;;;;5.22;3.50;;;22.80;98.60;;;;;;4859198;29;20063;-83
2023/06/23 12:21:29;;;;;;;3.92;3.45;;;22.70;98.50;;;;;;4859969;29;20113;-83
2023/06/23 12:23:56;;;;;;;3.90;3.60;;;22.90;98.70;;;;;;4859694;29;20111;-83
2023/06/23 12:26:22;;;;;;;5.15;4.00;;;22.80;99.50;;;;;;4859400;29;20033;-83
2023/06/23 12:28:48;;;;;;;4.38;3.72;;;22.80;99.60;;;;;;4859436;29;20109;-83
2023/06/23 12:31:24;;;;;;;5.68;4.18;;;22.80;99.50;;;;;;4860299;29;20033;-83
2023/06/23 12:33:50;;;;;;;6.50;3.67;;;22.80;99.10;;;;;;4858969;29;20089;-83
2023/06/23 12:36:16;;;;;;;3.85;3.45;;;22.80;99.30;;;;;;4860162;29;20060;-83
2023/06/23 12:38:41;;;;;;;5.32;3.55;;;22.90;99.30;;;;;;4860286;29;20025;-83
2023/06/23 12:41:23;;;;;;;3.88;3.20;;;22.80;99.70;;;;;;4858743;29;20461;-83
2023/06/23 12:43:50;;;;;;;3.13;2.85;;;22.90;99.00;;;;;;4859661;29;20029;-83